DEALR1 ETNL-ETNL
Flight info
| Callsign | DEALR1 |
|---|---|
| Flight time | 0h 8m |
| Altitude | 21000 |
| Route | NL127 LUWIL UBAK PENEK VFRHOZ SAWAZ TR208 VFRSTAY/0200 SAWAZ/N450 F220 IFR PENEK UBAKA LUWIL LAG |
| Aircraft | EUFI/M-GILRTUV/LB21 |
Departure
| Time | 2026-04-24 19:51 |
|---|---|
| Airport | Rostock-Laage Airport (ETNL) |
Arrival
| Time | 2026-04-24 19:59 |
|---|---|
| Airport | Rostock-Laage Airport (ETNL) |
| Time | Latitude | Longitude | Altitude | Speed | Heading |
|---|---|---|---|---|---|
| 2026-04-24 18:54 | 50.62088 | 12.40728 | 21112 ft | 488 kts | 122° |
| 2026-04-24 18:55 | 50.64819 | 12.49130 | 21277 ft | 480 kts | 39° |
| 2026-04-24 18:55 | 50.67301 | 12.52760 | 21169 ft | 478 kts | 39° |
| 2026-04-24 18:55 | 50.69702 | 12.56251 | 21134 ft | 477 kts | 39° |
| 2026-04-24 18:56 | 50.72126 | 12.59831 | 21126 ft | 477 kts | 40° |
| 2026-04-24 18:56 | 50.74556 | 12.63471 | 21089 ft | 475 kts | 39° |
| 2026-04-24 18:56 | 50.77046 | 12.66908 | 21032 ft | 474 kts | 36° |
| 2026-04-24 18:56 | 50.79564 | 12.70140 | 20985 ft | 472 kts | 35° |
| 2026-04-24 18:57 | 50.82152 | 12.73338 | 20997 ft | 469 kts | 30° |
| 2026-04-24 18:57 | 50.85078 | 12.75489 | 20869 ft | 458 kts | 11° |
| 2026-04-24 18:57 | 50.88218 | 12.75900 | 20996 ft | 452 kts | 350° |
| 2026-04-24 18:57 | 50.91175 | 12.74464 | 21316 ft | 446 kts | 332° |
| 2026-04-24 18:58 | 50.93730 | 12.71655 | 20887 ft | 441 kts | 314° |
| 2026-04-24 18:58 | 50.95345 | 12.67572 | 20255 ft | 440 kts | 284° |
| 2026-04-24 18:58 | 50.95299 | 12.62745 | 19616 ft | 447 kts | 255° |
| 2026-04-24 18:58 | 50.93487 | 12.58298 | 19027 ft | 532 kts | 224° |
| 2026-04-24 18:59 | 50.90601 | 12.54782 | 18453 ft | 521 kts | 220° |
| 2026-04-24 18:59 | 50.87784 | 12.51271 | 17694 ft | 511 kts | 221° |
| 2026-04-24 18:59 | 50.85052 | 12.47719 | 17378 ft | 507 kts | 223° |
| 2026-04-24 18:59 | 50.82414 | 12.43994 | 17294 ft | 507 kts | 228° |
| 2026-04-24 19:00 | 50.80220 | 12.39705 | 16929 ft | 499 kts | 235° |
| 2026-04-24 19:00 | 50.78105 | 12.35349 | 16968 ft | 499 kts | 236° |
| 2026-04-24 19:00 | 50.76007 | 12.30950 | 17131 ft | 502 kts | 235° |
| 2026-04-24 19:00 | 50.73398 | 12.27310 | 16995 ft | 510 kts | 208° |
| 2026-04-24 19:01 | 50.69968 | 12.25777 | 17258 ft | 520 kts | 189° |
| 2026-04-24 19:01 | 50.66325 | 12.25863 | 17094 ft | 524 kts | 171° |
| 2026-04-24 19:01 | 50.62889 | 12.27818 | 17083 ft | 531 kts | 151° |
| 2026-04-24 19:01 | 50.59924 | 12.31273 | 16987 ft | 531 kts | 142° |
| 2026-04-24 19:02 | 50.57970 | 12.33710 | 16965 ft | 530 kts | 142° |
| 2026-04-24 19:02 | 50.54337 | 12.38794 | 16862 ft | 531 kts | 123° |
| 2026-04-24 19:02 | 50.53116 | 12.44155 | 16698 ft | 516 kts | 99° |
| 2026-04-24 19:02 | 50.53283 | 12.49702 | 17621 ft | 521 kts | 53° |
| 2026-04-24 19:03 | 50.56242 | 12.52410 | 17723 ft | 503 kts | 5° |
| 2026-04-24 19:03 | 50.59711 | 12.53042 | 17717 ft | 501 kts | 4° |
| 2026-04-24 19:03 | 50.63168 | 12.53572 | 17643 ft | 499 kts | 3° |
| 2026-04-24 19:03 | 50.66624 | 12.54039 | 17611 ft | 499 kts | 2° |
| 2026-04-24 19:04 | 50.70086 | 12.54452 | 17629 ft | 498 kts | 2° |
| 2026-04-24 19:04 | 50.73547 | 12.54872 | 17636 ft | 499 kts | 2° |
| 2026-04-24 19:04 | 50.77018 | 12.55310 | 17627 ft | 498 kts | 2° |
| 2026-04-24 19:04 | 50.80467 | 12.55747 | 17618 ft | 499 kts | 2° |
| 2026-04-24 19:05 | 50.83919 | 12.56430 | 17487 ft | 503 kts | 11° |
| 2026-04-24 19:05 | 50.87160 | 12.58463 | 17266 ft | 507 kts | 26° |
| 2026-04-24 19:05 | 50.90055 | 12.61652 | 16916 ft | 504 kts | 34° |
| 2026-04-24 19:05 | 50.92868 | 12.65001 | 16880 ft | 504 kts | 34° |
| 2026-04-24 19:06 | 50.95750 | 12.68166 | 17037 ft | 501 kts | 26° |
| 2026-04-24 19:06 | 50.98931 | 12.70353 | 17298 ft | 483 kts | 16° |
| 2026-04-24 19:06 | 51.01974 | 12.71638 | 17609 ft | 445 kts | 6° |
| 2026-04-24 19:06 | 51.05027 | 12.71829 | 17911 ft | 430 kts | 349° |
| 2026-04-24 19:07 | 51.07611 | 12.70478 | 18215 ft | 373 kts | 325° |
| 2026-04-24 19:07 | 51.09332 | 12.67462 | 18135 ft | 368 kts | 295° |
| 2026-04-24 19:07 | 51.09726 | 12.64920 | 18054 ft | 345 kts | 272° |
| 2026-04-24 19:07 | 51.08723 | 12.60727 | 17837 ft | 298 kts | 236° |
| 2026-04-24 19:08 | 51.07125 | 12.58075 | 17796 ft | 383 kts | 226° |
| 2026-04-24 19:08 | 51.04863 | 12.55026 | 17868 ft | 453 kts | 222° |
| 2026-04-24 19:08 | 51.02444 | 12.52059 | 17885 ft | 421 kts | 220° |
| 2026-04-24 19:08 | 51.00223 | 12.49552 | 17939 ft | 371 kts | 218° |
| 2026-04-24 19:09 | 50.98074 | 12.47020 | 17987 ft | 392 kts | 223° |
| 2026-04-24 19:09 | 50.95991 | 12.44401 | 17943 ft | 389 kts | 220° |
| 2026-04-24 19:09 | 50.93782 | 12.41886 | 17954 ft | 422 kts | 219° |
| 2026-04-24 19:09 | 50.91425 | 12.39199 | 17999 ft | 399 kts | 219° |
| 2026-04-24 19:10 | 50.89212 | 12.36706 | 18005 ft | 392 kts | 219° |
| 2026-04-24 19:10 | 50.86959 | 12.34186 | 18065 ft | 393 kts | 219° |
| 2026-04-24 19:10 | 50.84831 | 12.31824 | 18077 ft | 371 kts | 219° |
| 2026-04-24 19:10 | 50.82724 | 12.29492 | 18107 ft | 369 kts | 218° |
| 2026-04-24 19:11 | 50.80623 | 12.27164 | 18085 ft | 365 kts | 218° |
| 2026-04-24 19:11 | 50.78545 | 12.24872 | 18086 ft | 368 kts | 219° |
| 2026-04-24 19:11 | 50.76473 | 12.22578 | 18101 ft | 366 kts | 219° |
| 2026-04-24 19:11 | 50.74392 | 12.20281 | 18109 ft | 363 kts | 219° |
| 2026-04-24 19:12 | 50.72208 | 12.18237 | 18098 ft | 368 kts | 205° |
| 2026-04-24 19:12 | 50.69687 | 12.17262 | 18088 ft | 380 kts | 188° |
| 2026-04-24 19:12 | 50.67047 | 12.17568 | 18037 ft | 387 kts | 169° |
| 2026-04-24 19:12 | 50.64562 | 12.19212 | 18069 ft | 394 kts | 148° |
| 2026-04-24 19:13 | 50.63134 | 12.20980 | 18090 ft | 399 kts | 135° |
| 2026-04-24 19:13 | 50.61117 | 12.25807 | 18138 ft | 396 kts | 109° |
| 2026-04-24 19:13 | 50.60560 | 12.29994 | 18127 ft | 383 kts | 89° |
| 2026-04-24 19:13 | 50.60870 | 12.34162 | 18103 ft | 385 kts | 70° |
| 2026-04-24 19:14 | 50.61982 | 12.37896 | 18106 ft | 374 kts | 51° |
| 2026-04-24 19:14 | 50.63739 | 12.40855 | 18116 ft | 366 kts | 34° |
| 2026-04-24 19:14 | 50.65846 | 12.43142 | 18103 ft | 366 kts | 29° |
| 2026-04-24 19:14 | 50.67991 | 12.45368 | 18089 ft | 369 kts | 30° |
| 2026-04-24 19:15 | 50.70113 | 12.47616 | 18091 ft | 366 kts | 30° |
| 2026-04-24 19:15 | 50.72210 | 12.49901 | 18096 ft | 368 kts | 31° |
| 2026-04-24 19:15 | 50.74308 | 12.52222 | 18121 ft | 366 kts | 31° |
| 2026-04-24 19:15 | 50.76393 | 12.54546 | 18097 ft | 369 kts | 31° |
| 2026-04-24 19:16 | 50.80493 | 12.59299 | 18147 ft | 366 kts | 32° |
| 2026-04-24 19:16 | 50.82568 | 12.61599 | 18134 ft | 365 kts | 31° |
| 2026-04-24 19:16 | 50.84651 | 12.63936 | 18103 ft | 364 kts | 31° |
| 2026-04-24 19:17 | 50.86027 | 12.65483 | 18110 ft | 369 kts | 31° |
| 2026-04-24 19:17 | 50.88113 | 12.67822 | 18168 ft | 366 kts | 31° |
| 2026-04-24 19:17 | 50.90211 | 12.70167 | 18289 ft | 370 kts | 31° |
| 2026-04-24 19:17 | 50.92307 | 12.72512 | 18397 ft | 369 kts | 31° |
| 2026-04-24 19:18 | 50.95123 | 12.75574 | 18149 ft | 365 kts | 32° |
| 2026-04-24 19:18 | 50.96513 | 12.77199 | 18173 ft | 371 kts | 32° |
| 2026-04-24 19:18 | 50.98595 | 12.79577 | 18178 ft | 364 kts | 28° |
| 2026-04-24 19:18 | 51.00860 | 12.81246 | 18098 ft | 359 kts | 11° |
| 2026-04-24 19:19 | 51.03314 | 12.81813 | 18013 ft | 346 kts | 354° |
| 2026-04-24 19:19 | 51.05687 | 12.81153 | 18075 ft | 352 kts | 339° |
| 2026-04-24 19:19 | 51.07909 | 12.79663 | 18185 ft | 347 kts | 327° |
| 2026-04-24 19:19 | 51.09721 | 12.77142 | 18167 ft | 346 kts | 306° |
| 2026-04-24 19:20 | 51.10925 | 12.73795 | 18129 ft | 355 kts | 291° |
| 2026-04-24 19:20 | 51.11517 | 12.69974 | 18136 ft | 356 kts | 277° |
| 2026-04-24 19:20 | 51.11436 | 12.66092 | 18150 ft | 355 kts | 261° |
| 2026-04-24 19:20 | 51.10640 | 12.62334 | 18143 ft | 361 kts | 244° |
| 2026-04-24 19:21 | 51.09145 | 12.59074 | 18119 ft | 369 kts | 229° |
| 2026-04-24 19:21 | 51.07082 | 12.56610 | 18144 ft | 372 kts | 211° |
| 2026-04-24 19:21 | 51.04585 | 12.55168 | 18134 ft | 389 kts | 196° |
| 2026-04-24 19:21 | 51.01906 | 12.54673 | 17543 ft | 391 kts | 182° |
| 2026-04-24 19:22 | 50.99258 | 12.55265 | 17240 ft | 401 kts | 166° |
| 2026-04-24 19:22 | 50.96706 | 12.56921 | 17146 ft | 396 kts | 155° |
| 2026-04-24 19:22 | 50.94177 | 12.58935 | 17161 ft | 440 kts | 154° |
| 2026-04-24 19:22 | 50.91551 | 12.61283 | 17197 ft | 427 kts | 150° |
| 2026-04-24 19:23 | 50.88964 | 12.63597 | 17160 ft | 425 kts | 158° |
| 2026-04-24 19:23 | 50.86264 | 12.65527 | 16926 ft | 446 kts | 150° |
| 2026-04-24 19:23 | 50.83370 | 12.68039 | 16891 ft | 473 kts | 152° |
| 2026-04-24 19:23 | 50.80494 | 12.70959 | 16883 ft | 513 kts | 142° |
| 2026-04-24 19:24 | 50.77781 | 12.74147 | 16870 ft | 470 kts | 145° |
| 2026-04-24 19:24 | 50.74885 | 12.75237 | 15840 ft | 432 kts | 216° |
| 2026-04-24 19:24 | 50.73678 | 12.71293 | 16447 ft | 420 kts | 284° |
| 2026-04-24 19:24 | 50.75550 | 12.67937 | 16220 ft | 438 kts | 325° |
| 2026-04-24 19:25 | 50.78019 | 12.65345 | 16187 ft | 425 kts | 326° |
| 2026-04-24 19:25 | 50.80498 | 12.62842 | 16192 ft | 420 kts | 327° |
| 2026-04-24 19:25 | 50.82978 | 12.60354 | 16228 ft | 421 kts | 327° |
| 2026-04-24 19:25 | 50.85460 | 12.60212 | 15806 ft | 423 kts | 53° |
| 2026-04-24 19:26 | 50.87164 | 12.64345 | 15813 ft | 437 kts | 43° |
| 2026-04-24 19:26 | 50.89785 | 12.64511 | 15700 ft | 428 kts | 330° |
| 2026-04-24 19:26 | 50.92402 | 12.62347 | 16031 ft | 419 kts | 332° |
| 2026-04-24 19:26 | 50.95003 | 12.60200 | 16148 ft | 434 kts | 331° |
| 2026-04-24 19:27 | 50.97637 | 12.57950 | 16113 ft | 428 kts | 329° |
| 2026-04-24 19:27 | 51.00256 | 12.55585 | 16096 ft | 428 kts | 330° |
| 2026-04-24 19:27 | 51.02861 | 12.53329 | 16112 ft | 426 kts | 330° |
| 2026-04-24 19:27 | 51.05412 | 12.51154 | 16061 ft | 419 kts | 330° |
| 2026-04-24 19:28 | 51.07993 | 12.49005 | 16014 ft | 419 kts | 332° |
| 2026-04-24 19:28 | 51.10623 | 12.47034 | 15959 ft | 416 kts | 348° |
| 2026-04-24 19:28 | 51.13498 | 12.47725 | 16303 ft | 437 kts | 22° |
| 2026-04-24 19:28 | 51.16092 | 12.50317 | 16572 ft | 436 kts | 32° |
| 2026-04-24 19:29 | 51.20965 | 12.56506 | 18236 ft | 456 kts | 39° |
| 2026-04-24 19:29 | 51.23312 | 12.59994 | 19020 ft | 465 kts | 40° |
| 2026-04-24 19:29 | 51.25641 | 12.63589 | 19874 ft | 467 kts | 40° |
| 2026-04-24 19:30 | 51.27955 | 12.67312 | 20731 ft | 478 kts | 43° |
| 2026-04-24 19:30 | 51.30236 | 12.71181 | 21497 ft | 481 kts | 43° |
| 2026-04-24 19:30 | 51.32544 | 12.75143 | 21664 ft | 484 kts | 43° |
| 2026-04-24 19:30 | 51.34833 | 12.79075 | 21815 ft | 484 kts | 43° |
| 2026-04-24 19:31 | 51.36993 | 12.83245 | 21847 ft | 492 kts | 51° |
| 2026-04-24 19:31 | 51.38885 | 12.87778 | 21913 ft | 487 kts | 54° |
| 2026-04-24 19:31 | 51.40632 | 12.92475 | 22047 ft | 495 kts | 56° |
| 2026-04-24 19:31 | 51.42365 | 12.97229 | 22113 ft | 492 kts | 56° |
| 2026-04-24 19:32 | 51.44194 | 13.01824 | 22202 ft | 482 kts | 43° |
| 2026-04-24 19:32 | 51.46961 | 13.04597 | 22488 ft | 479 kts | 13° |
| 2026-04-24 19:32 | 51.50133 | 13.04593 | 22067 ft | 453 kts | 341° |
| 2026-04-24 19:32 | 51.53163 | 13.03116 | 22091 ft | 455 kts | 340° |
| 2026-04-24 19:33 | 51.56173 | 13.01622 | 22156 ft | 452 kts | 340° |
| 2026-04-24 19:33 | 51.59191 | 13.00119 | 22048 ft | 452 kts | 340° |
| 2026-04-24 19:33 | 51.62182 | 12.98634 | 21999 ft | 450 kts | 340° |
| 2026-04-24 19:33 | 51.65190 | 12.97157 | 22023 ft | 453 kts | 341° |
| 2026-04-24 19:34 | 51.68214 | 12.95756 | 22044 ft | 451 kts | 341° |
| 2026-04-24 19:34 | 51.71236 | 12.94366 | 22048 ft | 453 kts | 341° |
| 2026-04-24 19:34 | 51.74268 | 12.92970 | 22052 ft | 452 kts | 341° |
| 2026-04-24 19:34 | 51.77286 | 12.91581 | 22049 ft | 452 kts | 341° |
| 2026-04-24 19:35 | 51.80317 | 12.90184 | 22040 ft | 453 kts | 341° |
| 2026-04-24 19:35 | 51.83344 | 12.88799 | 22030 ft | 451 kts | 342° |
| 2026-04-24 19:35 | 51.86340 | 12.87527 | 22018 ft | 452 kts | 342° |
| 2026-04-24 19:35 | 51.89433 | 12.86257 | 22002 ft | 453 kts | 343° |
| 2026-04-24 19:36 | 51.92456 | 12.85099 | 21996 ft | 451 kts | 344° |
| 2026-04-24 19:36 | 51.95517 | 12.83941 | 22032 ft | 454 kts | 344° |
| 2026-04-24 19:36 | 51.98595 | 12.82791 | 22060 ft | 453 kts | 344° |
| 2026-04-24 19:36 | 52.01666 | 12.81647 | 22069 ft | 454 kts | 344° |
| 2026-04-24 19:37 | 52.04765 | 12.80489 | 22086 ft | 457 kts | 344° |
| 2026-04-24 19:37 | 52.07844 | 12.79340 | 22110 ft | 455 kts | 344° |
| 2026-04-24 19:37 | 52.10932 | 12.78186 | 22079 ft | 454 kts | 344° |
| 2026-04-24 19:37 | 52.14008 | 12.77036 | 22035 ft | 453 kts | 344° |
| 2026-04-24 19:38 | 52.17082 | 12.75885 | 21974 ft | 455 kts | 344° |
| 2026-04-24 19:38 | 52.20154 | 12.74735 | 22019 ft | 452 kts | 344° |
| 2026-04-24 19:38 | 52.23236 | 12.73582 | 22071 ft | 456 kts | 344° |
| 2026-04-24 19:38 | 52.26318 | 12.72427 | 22066 ft | 453 kts | 344° |
| 2026-04-24 19:39 | 52.29392 | 12.71276 | 22058 ft | 454 kts | 344° |
| 2026-04-24 19:39 | 52.32474 | 12.70120 | 22093 ft | 455 kts | 344° |
| 2026-04-24 19:39 | 52.35538 | 12.68880 | 22098 ft | 451 kts | 341° |
| 2026-04-24 19:39 | 52.38503 | 12.67251 | 22107 ft | 450 kts | 335° |
| 2026-04-24 19:40 | 52.41350 | 12.65122 | 22143 ft | 450 kts | 331° |
| 2026-04-24 19:40 | 52.44142 | 12.62812 | 22150 ft | 448 kts | 330° |
| 2026-04-24 19:40 | 52.46939 | 12.60484 | 22143 ft | 449 kts | 330° |
| 2026-04-24 19:40 | 52.49687 | 12.58119 | 22128 ft | 448 kts | 329° |
| 2026-04-24 19:41 | 52.52415 | 12.55649 | 22116 ft | 447 kts | 329° |
| 2026-04-24 19:41 | 52.55156 | 12.53159 | 22087 ft | 452 kts | 329° |
| 2026-04-24 19:41 | 52.57896 | 12.50666 | 22071 ft | 449 kts | 328° |
| 2026-04-24 19:41 | 52.60631 | 12.48177 | 22059 ft | 449 kts | 329° |
| 2026-04-24 19:42 | 52.63356 | 12.45693 | 22017 ft | 447 kts | 328° |
| 2026-04-24 19:42 | 52.66070 | 12.43189 | 22039 ft | 449 kts | 328° |
| 2026-04-24 19:42 | 52.68791 | 12.40668 | 22055 ft | 448 kts | 328° |
| 2026-04-24 19:42 | 52.71506 | 12.38155 | 22056 ft | 448 kts | 328° |
| 2026-04-24 19:43 | 52.74227 | 12.35634 | 22052 ft | 449 kts | 328° |
| 2026-04-24 19:43 | 52.76946 | 12.33115 | 22050 ft | 447 kts | 328° |
| 2026-04-24 19:43 | 52.79629 | 12.30628 | 22034 ft | 448 kts | 328° |
| 2026-04-24 19:43 | 52.82303 | 12.27998 | 22039 ft | 444 kts | 322° |
| 2026-04-24 19:44 | 52.84744 | 12.24745 | 22047 ft | 447 kts | 319° |
| 2026-04-24 19:44 | 52.87102 | 12.21508 | 22031 ft | 444 kts | 319° |
| 2026-04-24 19:44 | 52.89486 | 12.18231 | 21985 ft | 449 kts | 319° |
| 2026-04-24 19:44 | 52.91887 | 12.14929 | 21950 ft | 446 kts | 319° |
| 2026-04-24 19:45 | 52.94276 | 12.11644 | 21893 ft | 448 kts | 319° |
| 2026-04-24 19:45 | 52.96671 | 12.08350 | 21891 ft | 445 kts | 319° |
| 2026-04-24 19:45 | 52.99075 | 12.05104 | 22029 ft | 449 kts | 322° |
| 2026-04-24 19:45 | 53.01829 | 12.02587 | 21852 ft | 454 kts | 336° |
| 2026-04-24 19:46 | 53.04879 | 12.01126 | 21524 ft | 456 kts | 346° |
| 2026-04-24 19:46 | 53.08017 | 12.00589 | 20985 ft | 455 kts | 355° |
| 2026-04-24 19:46 | 53.11156 | 12.00827 | 20650 ft | 452 kts | 4° |
| 2026-04-24 19:46 | 53.14306 | 12.01606 | 20706 ft | 456 kts | 5° |
| 2026-04-24 19:47 | 53.17424 | 12.02410 | 20888 ft | 456 kts | 5° |
| 2026-04-24 19:47 | 53.20578 | 12.03222 | 21064 ft | 458 kts | 5° |
| 2026-04-24 19:47 | 53.23722 | 12.04031 | 21216 ft | 458 kts | 5° |
| 2026-04-24 19:47 | 53.26891 | 12.04863 | 21113 ft | 459 kts | 5° |
| 2026-04-24 19:48 | 53.30048 | 12.05599 | 20616 ft | 460 kts | 4° |
| 2026-04-24 19:48 | 53.33154 | 12.06227 | 19168 ft | 442 kts | 3° |
| 2026-04-24 19:48 | 53.39151 | 12.07301 | 16628 ft | 423 kts | 3° |
| 2026-04-24 19:49 | 53.44895 | 12.08311 | 14603 ft | 408 kts | 2° |
| 2026-04-24 19:49 | 53.49838 | 12.12083 | 12846 ft | 426 kts | 56° |
| 2026-04-24 19:50 | 53.54219 | 12.24684 | 10988 ft | 410 kts | 54° |
| 2026-04-24 19:50 | 53.55689 | 12.28783 | 10986 ft | 411 kts | 52° |
| 2026-04-24 19:51 | 53.59199 | 12.36103 | 9514 ft | 394 kts | 44° |
| 2026-04-24 19:51 | 53.60986 | 12.39483 | 8398 ft | 376 kts | 44° |
| 2026-04-24 19:52 | 53.64272 | 12.45563 | 6490 ft | 325 kts | 43° |
| 2026-04-24 19:52 | 53.65849 | 12.48022 | 5840 ft | 303 kts | 28° |
| 2026-04-24 19:52 | 53.67613 | 12.49874 | 5331 ft | 298 kts | 29° |
| 2026-04-24 19:52 | 53.69323 | 12.51749 | 5088 ft | 293 kts | 29° |
| 2026-04-24 19:53 | 53.71034 | 12.53627 | 5067 ft | 293 kts | 29° |
| 2026-04-24 19:53 | 53.72745 | 12.55510 | 5027 ft | 296 kts | 29° |
| 2026-04-24 19:53 | 53.76520 | 12.57571 | 3714 ft | 286 kts | 11° |
| 2026-04-24 19:54 | 53.78416 | 12.58358 | 3335 ft | 279 kts | 12° |
| 2026-04-24 19:54 | 53.80272 | 12.59246 | 3155 ft | 281 kts | 14° |
| 2026-04-24 19:54 | 53.82132 | 12.60165 | 3047 ft | 278 kts | 14° |
| 2026-04-24 19:54 | 53.83992 | 12.61090 | 3054 ft | 283 kts | 14° |
| 2026-04-24 19:55 | 53.84606 | 12.61396 | 3054 ft | 283 kts | 14° |
| 2026-04-24 19:55 | 53.87414 | 12.60803 | 3034 ft | 287 kts | 300° |
| 2026-04-24 19:55 | 53.88359 | 12.58002 | 2833 ft | 253 kts | 298° |
| 2026-04-24 19:55 | 53.89074 | 12.55324 | 2575 ft | 242 kts | 289° |
| 2026-04-24 19:56 | 53.89460 | 12.52700 | 2140 ft | 223 kts | 282° |
| 2026-04-24 19:56 | 53.89772 | 12.50168 | 1846 ft | 218 kts | 282° |
| 2026-04-24 19:56 | 53.90058 | 12.47717 | 1574 ft | 211 kts | 282° |
| 2026-04-24 19:56 | 53.90335 | 12.45245 | 1328 ft | 213 kts | 280° |
| 2026-04-24 19:57 | 53.90563 | 12.42852 | 1101 ft | 201 kts | 279° |
| 2026-04-24 19:57 | 53.90763 | 12.40573 | 939 ft | 183 kts | 278° |
| 2026-04-24 19:57 | 53.90930 | 12.38443 | 824 ft | 180 kts | 278° |
| 2026-04-24 19:57 | 53.91116 | 12.36354 | 696 ft | 170 kts | 278° |
| 2026-04-24 19:58 | 53.91278 | 12.34444 | 573 ft | 162 kts | 277° |
| 2026-04-24 19:58 | 53.91415 | 12.32673 | 399 ft | 147 kts | 276° |
| 2026-04-24 19:58 | 53.91559 | 12.30891 | 322 ft | 158 kts | 277° |
| 2026-04-24 19:58 | 53.91698 | 12.29174 | 154 ft | 142 kts | 277° |
| 2026-04-24 19:59 | 53.91806 | 12.27806 | 147 ft | 94 kts | 278° |
| 2026-04-24 19:59 | 53.91879 | 12.27091 | 145 ft | 42 kts | 285° |
| 2026-04-24 19:59 | 53.91924 | 12.26620 | 145 ft | 35 kts | 278° |
| 2026-04-24 19:59 | 53.91955 | 12.26254 | 144 ft | 30 kts | 277° |
| 2026-04-24 20:00 | 53.92008 | 12.26093 | 144 ft | 8 kts | 19° |
| 2026-04-24 20:00 | 53.92070 | 12.26138 | 145 ft | 9 kts | 21° |
| 2026-04-24 20:00 | 53.92165 | 12.26224 | 145 ft | 19 kts | 26° |
| 2026-04-24 20:00 | 53.92238 | 12.26368 | 145 ft | 18 kts | 99° |
| 2026-04-24 20:01 | 53.92226 | 12.26568 | 145 ft | 13 kts | 56° |
| 2026-04-24 20:01 | 53.92264 | 12.26601 | 145 ft | 2 kts | 98° |
| 2026-04-24 20:01 | 53.92263 | 12.26609 | 145 ft | 4 kts | 99° |
| 2026-04-24 20:01 | 53.92262 | 12.26617 | 145 ft | 7 kts | 99° |
| 2026-04-24 20:02 | 53.92260 | 12.26636 | 145 ft | 0 kts | 98° |